This is the latest recevied weather packets stored in our database for station/object NE8U. If no packets are shown the sender has not sent any weather packets the latest 10 day(s).
| Time | Temp. | Humidity | Pressure | Rain* | Wind** | Luminosity | Snow |
|---|---|---|---|---|---|---|---|
| 1778021143 | 24.44° C | 30% | 1011.4 hPa | 0 mm | - | 591 W/m² | - |
| 1778020840 | 24.44° C | 31% | 1011.5 hPa | 0 mm | - | 268 W/m² | - |
| 1778020537 | 23.33° C | 32% | 1011.6 hPa | 0 mm | - | 131 W/m² | - |
| 1778020233 | 23.89° C | 32% | 1011.7 hPa | 0 mm | - | 145 W/m² | - |
| 1778019929 | 23.89° C | 31% | 1011.6 hPa | 0 mm | - | 288 W/m² | - |
| 1778019626 | 23.33° C | 31% | 1011.9 hPa | 0 mm | - | 538 W/m² | - |
| 1778019323 | 23.33° C | 32% | 1011.7 hPa | 0 mm | - | 147 W/m² | - |
| 1778019019 | 24.44° C | 31% | 1011.6 hPa | 0 mm | - | 232 W/m² | - |
| 1778018717 | 22.78° C | 34% | 1011.9 hPa | 0 mm | - | 207 W/m² | - |
| 1778018415 | 23.33° C | 34% | 1011.9 hPa | 0 mm | - | 147 W/m² | - |
| 1778018113 | 23.33° C | 34% | 1012 hPa | 0 mm | - | 564 W/m² | - |
| 1778017810 | 23.89° C | 33% | 1012 hPa | 0 mm | - | 197 W/m² | - |
| 1778017508 | 24.44° C | 32% | 1012.2 hPa | 0 mm | - | 818 W/m² | - |
| 1778017204 | 24.44° C | 33% | 1012.1 hPa | 0 mm | - | 257 W/m² | - |
| 1778016903 | 25.56° C | 33% | 1012.2 hPa | 0 mm | - | 237 W/m² | - |
| 1778016598 | 24.44° C | 35% | 1012.2 hPa | 0 mm | - | 218 W/m² | - |
| 1778016295 | 24.44° C | 36% | 1012.4 hPa | 0 mm | - | 777 W/m² | - |
| 1778015992 | 24.44° C | 37% | 1012.3 hPa | 0 mm | - | 229 W/m² | - |
| 1778015689 | 24.44° C | 38% | 1012.3 hPa | 0 mm | - | 826 W/m² | - |
| 1778015385 | 23.89° C | 40% | 1012.4 hPa | 0 mm | - | 299 W/m² | - |
| 1778015083 | 23.89° C | 39% | 1012.3 hPa | 0 mm | - | 223 W/m² | - |
| 1778014779 | 25° C | 33% | 1012.4 hPa | 0 mm | - | 826 W/m² | - |
| 1778014478 | 24.44° C | 34% | 1012.4 hPa | 0 mm | - | 197 W/m² | - |
| 1778014174 | 22.78° C | 34% | 1012.5 hPa | 0 mm | - | 865 W/m² | - |
| 1778013872 | 24.44° C | 35% | 1012.5 hPa | 0 mm | - | 156 W/m² | - |
* Rain latest hour (hover to see other rain measurements)
** Current wind speed in m/s (hover to see current wind gust speed)